To NAV CANADA Home Page Login to a new session Search on AWWS site Disclaimer Vers la page française équivalente Tips FAQ What's new on the site To the Forecasts and Observations / NOTAM section To "File a Flight Plan" website Publications and other links Update of the User's profile FIC Telephone Numbers My Weather Data Folder Route Weather Data Regional Weather Data Local Weather Data To the Forecasts and Observations / NOTAM section
Request Generated 07/21/2018 at 19:14:42 UTC . Weather information available at that time is displayed.

METAR/TAF

TORONTO/LESTER B. PEARSON INTL/ON    

METAR CYYZ 211900Z 08010G16KT 15SM FEW080 BKN100 BKN280 25/19 A2990 RMK AC1AC4CI1 SLP125 DENSITY ALT 1900FT=
METAR CYYZ 211800Z 09011G16KT 15SM FEW060 OVC072 23/17 A2991 RMK SC1AC8 SC TR SLP129 DENSITY ALT 1700FT=
METAR CYYZ 211700Z 10011G18KT 15SM FEW060 BKN080 OVC120 25/17 A2992 RMK SC2AC5AC1 SLP130 DENSITY ALT 1900FT=

TAF CYYZ 211740Z 2118/2224 10010G20KT P6SM BKN080 BKN120
FM220000 07010G20KT P6SM BKN050 BKN160
FM220400 07008KT P6SM SCT050 BKN230
FM221100 06008G18KT P6SM FEW040 BKN080
FM221400 05010G20KT P6SM -SHRA SCT020 OVC040
FM221800 04008KT P6SM -RA SCT020 OVC030
FM222100 03012G22KT P6SM -RA BKN020 OVC030
RMK NXT FCST BY 212100Z=

KITCHENER/WATERLOO/ON    (show WxCam)

METAR CYKF 211900Z AUTO 09011G16KT 9SM SCT047 BKN075 BKN086 OVC140 24/18 A2989 RMK SLP120 DENSITY ALT 2300FT=
METAR CYKF 211800Z AUTO 09014KT 9SM SCT035 BKN043 OVC055 23/18 A2989 RMK SLP120 DENSITY ALT 2200FT=
METAR CYKF 211700Z AUTO 11014KT 9SM BKN035 OVC049 24/17 A2990 RMK SLP121 DENSITY ALT 2300FT=

TAF CYKF 211339Z 2114/2202 12010G20KT P6SM SCT030 OVC100
FM211700 12012G22KT P6SM BKN040 TEMPO 2120/2202 P6SM -SHRA
RMK FCST BASED ON AUTO OBS. NXT FCST BY 212000Z=

BORDEN/ON    

METAR CYBN 211900Z AUTO 13014G20KT 9SM FEW032 FEW055 FEW067 26/17 A2991 RMK SLP126=
METAR CYBN 211800Z AUTO 13009G16KT 100V160 9SM FEW037 FEW040 BKN049 BKN074 26/17 A2991 RMK SLP128=
METAR CYBN 211700Z AUTO 14013KT 100V160 9SM FEW035 SCT047 BKN069 BKN074 28/17 A2992 RMK SLP129=

*** REMARK        : Forecast period has ended; this was the last TAF issued
*** REMARQUE : La période de prévision est échue; ceci était le dernier TAF qui a été émis
TAF AMD CYBN 202204Z 2018/2106 FCST CNCLD DUE END OF FLYING PROGRAM
RMK NXT FCST WILL BE ISSUED AT 231015Z=

MUSKOKA/ON    (show WxCam)

METAR CYQA 211900Z AUTO 10011G21KT 060V160 9SM FEW060 28/14 A2993 RMK SLP135 DENSITY ALT 2500FT=
METAR CYQA 211800Z AUTO 11013G19KT 070V140 9SM CLR 28/14 A2994 RMK SLP136 DENSITY ALT 2500FT=
METAR CYQA 211700Z AUTO 11012G20KT 070V150 9SM FEW045 SCT190 26/16 A2994 RMK SLP137 DENSITY ALT 2400FT=

TAF CYQA 211338Z 2114/2202 11008KT P6SM FEW030 BKN200 TEMPO 2114/2118
BKN030 BKN200
BECMG 2114/2116 13010G20KT
FM220000 12008KT P6SM BKN200
RMK FCST BASED ON AUTO OBS. NXT FCST BY 212000Z=

HAMILTON/ON    

METAR CYHM 211900Z 05013KT 15SM BKN037 BKN051 BKN073 24/19 A2988 RMK SC5SC1AC1 SLP117 DENSITY ALT 2100FT=
METAR CYHM 211800Z 12009KT 15SM SCT033 BKN068 OVC110 26/17 A2989 RMK SC3AC4AC1 SLP119 DENSITY ALT 2300FT=
METAR CYHM 211700Z 13009KT 080V150 15SM BKN033 BKN056 BKN110 24/17 A2990 RMK SC5SC2AC1 AC TR SLP123 DENSITY ALT 2100FT=

TAF CYHM 211740Z 2118/2218 13010KT P6SM BKN030 BKN110
BECMG 2118/2119 12010G20KT
FM212100 07010G20KT P6SM BKN060 BKN200 TEMPO 2121/2201 P6SM -SHRA
FM220100 05010KT P6SM BKN040
FM220700 06007KT P6SM BKN080 BKN160
FM221100 05010KT P6SM BKN040 BKN120
FM221500 05015G25KT P6SM -SHRA SCT010 OVC025
RMK NXT FCST BY 220000Z=

WIARTON/ON    

METAR CYVV 211900Z 08013KT 15SM FEW030 SCT100 BKN150 BKN300 27/18 A2987 RMK SC2AS1AC3CC1 SLP113 DENSITY ALT 2300FT=
METAR CYVV 211800Z 10008G15KT 15SM BKN030 OVC150 25/18 A2988 RMK SC7AC1 SLP118 DENSITY ALT 2200FT=
METAR CYVV 211700Z 09008G16KT 15SM OVC025 24/18 A2989 RMK SC8 SLP120 DENSITY ALT 2000FT=

TAF CYVV 211339Z 2114/2123 12010KT P6SM SCT030 BKN100 TEMPO 2114/2117
BKN020 BKN100
BECMG 2114/2116 13010G20KT
FM211700 13010G20KT P6SM BKN030 TEMPO 2118/2123 5SM -SHRA BR
BECMG 2120/2122 10015G25KT
RMK NXT FCST BY 212000Z=

SARNIA (CHRIS HADFIELD)/ON    (show WxCam)

METAR CYZR 211900Z AUTO 15009KT 9SM FEW021 BKN026 OVC033 21/19 A2981 RMK SLP093 DENSITY ALT 1500FT=
SPECI CYZR 211843Z AUTO 15007KT 9SM FEW013 BKN024 OVC031 21/20 A2981 RMK SLP094 DENSITY ALT 1500FT=
SPECI CYZR 211840Z AUTO 15007KT 9SM FEW013 BKN027 OVC033 21/20 A2981 RMK SLP094 DENSITY ALT 1500FT=
SPECI CYZR 211838Z AUTO 14008KT 9SM FEW013 BKN024 OVC031 21/20 A2981 RMK SLP094 DENSITY ALT 1500FT=
SPECI CYZR 211836Z AUTO 14007KT 9SM FEW013 SCT021 BKN027 OVC031 21/20 A2981 RMK SLP094 DENSITY ALT 1500FT=
SPECI CYZR 211814Z AUTO 14009KT 9SM -RA FEW015 SCT020 OVC029 20/19 A2981 RMK SLP094 DENSITY ALT 1400FT=
SPECI CYZR 211811Z AUTO 14008KT 9SM FEW015 SCT020 OVC029 20/19 A2981 RMK SLP094 DENSITY ALT 1400FT=
SPECI CYZR 211806Z AUTO 15009KT 9SM -RA FEW015 SCT020 OVC027 20/19 A2981 RMK SLP094 DENSITY ALT 1400FT=
METAR CYZR 211800Z AUTO 15008KT 8SM -RA SCT015 BKN020 OVC027 20/19 A2981 RMK SLP095 DENSITY ALT 1400FT=
SPECI CYZR 211755Z AUTO 14009KT 8SM -RA SCT015 BKN020 OVC027 20/19 A2981 RMK SLP095 DENSITY ALT 1400FT=
SPECI CYZR 211743Z AUTO 15009KT 9SM FEW010 BKN020 BKN027 OVC041 20/19 A2981 RMK SLP095 DENSITY ALT 1400FT=
SPECI CYZR 211738Z AUTO 16009G16KT 9SM FEW010 SCT020 BKN029 OVC041 21/19 A2981 RMK SLP094 DENSITY ALT 1400FT=
SPECI CYZR 211735Z AUTO 15009G16KT 9SM SCT010 BKN020 BKN029 OVC041 21/19 A2981 RMK SLP094 DENSITY ALT 1400FT=
SPECI CYZR 211732Z AUTO 15011G16KT 9SM SCT010 SCT020 BKN029 OVC041 21/19 A2981 RMK SLP093 DENSITY ALT 1500FT=
SPECI CYZR 211718Z AUTO 14010KT 9SM -RA SCT007 SCT012 BKN028 OVC042 20/19 A2981 RMK SLP094 DENSITY ALT 1400FT=
SPECI CYZR 211705Z AUTO 16010G16KT 7SM -RA SCT008 SCT013 BKN022 OVC044 20/19 A2981 RMK SLP094 DENSITY ALT 1400FT=
SPECI CYZR 211701Z AUTO 16014KT 7SM RA BKN008 BKN013 BKN022 OVC044 20/19 A2981 RMK SLP094 DENSITY ALT 1400FT=
METAR CYZR 211700Z AUTO 15012KT 7SM RA SCT008 BKN013 BKN022 OVC044 20/19 A2981 RMK SLP094 DENSITY ALT 1400FT=

TAF CYZR 211339Z 2114/2202 14008KT P6SM OVC030 TEMPO 2114/2115 5SM
-SHRA BR OVC020 PROB30 2114/2115 2SM SHRA BR OVC008
FM211500 12012G22KT P6SM BKN025 OVC130 TEMPO 2115/2117 P6SM -SHRA
OVC020 PROB30 2115/2117 2SM SHRA BR OVC012
FM211700 12012G22KT P6SM BKN025 BKN050 TEMPO 2117/2202 P6SM -SHRA
OVC020 PROB30 2117/2122 VRB17G27KT 2SM TSRA BR BKN008 OVC020CB
RMK FCST BASED ON AUTO OBS. NXT FCST BY 212000Z=

LONDON/ON    

METAR CYXU 211900Z 09012KT 15SM BKN035 OVC075 23/18 A2985 RMK SC5AC3 SLP105 DENSITY ALT 2200FT=
METAR CYXU 211800Z 12010KT 15SM FEW025 BKN068 OVC130 22/17 A2985 RMK CF1AC7AC1 CF TR SLP108 DENSITY ALT 2100FT=
METAR CYXU 211700Z 14016G24KT 15SM FEW024 BKN029 BKN120 OVC280 22/17 A2986 RMK CF1SC6AC1CI1 CF TR SLP109 DENSITY ALT 2100FT=

TAF CYXU 211740Z 2118/2218 14015G25KT P6SM BKN030 BKN120 TEMPO
2118/2202 P6SM -SHRA BKN020 BKN120 PROB30 2118/2201 VRB18G28KT
2SM +TSRA BR BKN012CB
FM220200 10012KT P6SM FEW020 BKN040
FM220800 07008KT P6SM SCT040 BKN180
FM221200 04012G22KT P6SM BKN080
FM221500 03015G25KT P6SM -SHRA SCT020 OVC030
RMK NXT FCST BY 220000Z=

PETERBOROUGH/ON    (show WxCam)

METAR CYPQ 211900Z AUTO 11011G18KT 070V150 9SM SCT036 25/17 A2996 RMK SLP145 DENSITY ALT 1900FT=
METAR CYPQ 211800Z AUTO 12011G20KT 080V150 9SM FEW032 25/17 A2995 RMK SLP143 DENSITY ALT 1800FT=
METAR CYPQ 211700Z AUTO 10011G16KT 9SM FEW028 25/17 A2997 RMK SLP148 DENSITY ALT 1800FT=

TAF CYPQ 211338Z 2114/2202 14010G20KT P6SM FEW025 BKN200
BECMG 2123/2201 11008KT
RMK FCST BASED ON AUTO OBS. NXT FCST BY 212000Z=
Your time UTC time
Weather data provided by Environment Canada and NAV CANADA